createdAt,value
2023-04-15T00:01:13.277Z,8.52
2023-04-15T00:03:41.363Z,8.15
2023-04-15T00:06:09.705Z,7.90
2023-04-15T00:08:36.937Z,8.30
2023-04-15T00:11:05.985Z,9.13
2023-04-15T00:13:34.165Z,8.00
2023-04-15T00:16:01.716Z,7.55
2023-04-15T00:18:29.788Z,7.60
2023-04-15T00:20:57.009Z,7.95
2023-04-15T00:23:24.223Z,8.05
2023-04-15T00:25:51.928Z,7.68
2023-04-15T00:28:19.199Z,8.23
2023-04-15T00:30:47.290Z,6.82
2023-04-15T00:33:16.432Z,7.30
2023-04-15T00:35:43.739Z,6.85
2023-04-15T00:38:11.461Z,7.18
2023-04-15T00:40:38.745Z,7.45
2023-04-15T00:43:05.968Z,7.40
2023-04-15T00:45:33.445Z,7.68
2023-04-15T00:48:00.911Z,9.35
2023-04-15T00:50:28.207Z,7.80
2023-04-15T00:52:56.096Z,8.30
2023-04-15T00:55:23.580Z,7.72
2023-04-15T00:57:51.203Z,8.00
2023-04-15T01:00:20.234Z,8.80
2023-04-15T01:02:47.749Z,8.82
2023-04-15T01:05:17.539Z,9.80
2023-04-15T01:07:44.724Z,8.57
2023-04-15T01:10:12.133Z,8.05
2023-04-15T01:12:39.580Z,10.10
2023-04-15T01:15:08.089Z,7.65
2023-04-15T01:17:35.674Z,8.52
2023-04-15T01:20:03.294Z,7.85
2023-04-15T01:22:31.640Z,7.65
2023-04-15T01:25:08.197Z,8.05
2023-04-15T01:27:36.326Z,8.45
2023-04-15T01:30:05.340Z,8.27
2023-04-15T01:32:33.390Z,7.60
2023-04-15T01:35:00.696Z,7.97
2023-04-15T01:37:28.437Z,7.13
2023-04-15T01:39:57.257Z,7.40
2023-04-15T01:42:25.029Z,7.75
2023-04-15T01:44:53.637Z,7.47
2023-04-15T01:47:20.933Z,7.55
2023-04-15T01:49:48.378Z,7.75
2023-04-15T01:52:15.763Z,7.70
2023-04-15T01:54:43.060Z,7.93
2023-04-15T01:57:10.473Z,8.38
2023-04-15T01:59:38.274Z,9.93
2023-04-15T02:02:05.772Z,7.32
2023-04-15T02:04:34.195Z,7.68
2023-04-15T02:07:01.701Z,7.37
2023-04-15T02:09:29.287Z,7.45
2023-04-15T02:11:56.899Z,7.88
2023-04-15T02:14:24.660Z,7.03
2023-04-15T02:16:51.932Z,7.78
2023-04-15T02:19:19.196Z,7.95
2023-04-15T02:21:46.424Z,7.32
2023-04-15T02:24:17.517Z,7.38
2023-04-15T02:26:44.828Z,6.72
2023-04-15T02:29:12.197Z,7.18
2023-04-15T02:31:42.199Z,8.40
2023-04-15T02:34:09.465Z,6.90
2023-04-15T02:36:36.769Z,7.10
2023-04-15T02:39:05.859Z,7.05
2023-04-15T02:41:33.180Z,7.53
2023-04-15T02:44:00.694Z,7.72
2023-04-15T02:46:30.807Z,7.68
2023-04-15T02:49:00.212Z,8.18
2023-04-15T02:51:33.950Z,7.70
2023-04-15T02:54:01.571Z,8.02
2023-04-15T02:56:30.168Z,7.72
2023-04-15T02:58:57.476Z,8.25
2023-04-15T03:01:24.780Z,8.00
2023-04-15T03:03:52.141Z,7.70
2023-04-15T03:06:19.743Z,8.02
2023-04-15T03:08:47.164Z,7.57
2023-04-15T03:11:16.281Z,7.85
2023-04-15T03:13:43.625Z,7.93
2023-04-15T03:16:22.372Z,6.38
2023-04-15T03:18:49.604Z,7.50
2023-04-15T03:21:17.346Z,7.80
2023-04-15T03:23:45.409Z,7.72
2023-04-15T03:26:25.188Z,7.82
2023-04-15T03:28:53.265Z,7.97
2023-04-15T03:31:20.548Z,7.75
2023-04-15T03:33:47.894Z,8.50
2023-04-15T03:36:15.783Z,7.95
2023-04-15T03:38:43.462Z,9.73
2023-04-15T03:41:10.692Z,8.68
2023-04-15T03:43:37.866Z,8.95
2023-04-15T03:46:05.695Z,9.18
2023-04-15T03:48:32.926Z,10.65
2023-04-15T03:51:00.130Z,8.00
2023-04-15T03:53:27.377Z,8.50
2023-04-15T03:55:54.605Z,8.90
2023-04-15T03:58:22.046Z,10.38
2023-04-15T04:00:49.383Z,8.52
2023-04-15T04:03:16.827Z,9.43
2023-04-15T04:05:44.510Z,8.05
2023-04-15T04:08:13.849Z,8.25
2023-04-15T04:10:41.228Z,8.90
2023-04-15T04:13:08.516Z,8.70
2023-04-15T04:15:36.424Z,8.90
2023-04-15T04:18:03.842Z,8.52
2023-04-15T04:20:32.160Z,7.95
2023-04-15T04:22:59.381Z,8.10
2023-04-15T04:25:27.380Z,8.35
2023-04-15T04:27:54.581Z,8.70
2023-04-15T04:30:22.198Z,8.15
2023-04-15T04:32:51.412Z,8.95
2023-04-15T04:37:45.747Z,9.45
2023-04-15T04:40:13.224Z,8.50
2023-04-15T04:42:40.598Z,8.50
2023-04-15T04:45:08.594Z,8.40
2023-04-15T04:47:35.862Z,9.02
2023-04-15T04:50:03.572Z,8.57
2023-04-15T04:52:31.079Z,8.93
2023-04-15T04:54:58.286Z,12.32
2023-04-15T04:57:25.561Z,8.85
2023-04-15T04:59:52.791Z,8.45
2023-04-15T05:02:20.128Z,9.85
2023-04-15T05:04:47.433Z,9.75
2023-04-15T05:07:14.693Z,9.05
2023-04-15T05:09:41.970Z,8.30
2023-04-15T05:12:14.032Z,9.88
2023-04-15T05:14:44.010Z,9.68
2023-04-15T05:17:11.559Z,8.95
2023-04-15T05:19:38.757Z,9.05
2023-04-15T05:22:06.161Z,10.57
2023-04-15T05:24:33.372Z,10.05
2023-04-15T05:27:02.057Z,9.70
2023-04-15T05:29:30.687Z,10.27
2023-04-15T05:31:58.029Z,10.15
2023-04-15T05:34:25.331Z,9.90
2023-04-15T05:36:52.670Z,10.05
2023-04-15T05:39:19.885Z,10.52
2023-04-15T05:41:47.096Z,11.00
2023-04-15T05:44:14.359Z,10.05
2023-04-15T05:46:41.823Z,10.25
2023-04-15T05:49:09.227Z,11.98
2023-04-15T05:51:36.527Z,11.70
2023-04-15T05:54:03.818Z,11.40
2023-04-15T05:56:31.686Z,12.30
2023-04-15T05:58:59.022Z,11.18
2023-04-15T06:01:26.339Z,10.57
2023-04-15T06:03:53.754Z,10.60
2023-04-15T06:06:21.097Z,11.60
2023-04-15T06:08:48.336Z,10.80
2023-04-15T06:11:15.649Z,11.20
2023-04-15T06:13:42.945Z,10.63
2023-04-15T06:16:10.166Z,10.98
2023-04-15T06:18:37.549Z,10.48
2023-04-15T06:21:05.164Z,11.52
2023-04-15T06:23:34.870Z,11.57
2023-04-15T06:26:02.137Z,11.88
2023-04-15T06:28:29.400Z,11.70
2023-04-15T06:30:56.631Z,10.55
2023-04-15T06:33:23.934Z,11.32
2023-04-15T06:35:51.165Z,12.02
2023-04-15T06:38:18.441Z,10.82
2023-04-15T06:40:45.848Z,11.73
2023-04-15T06:43:13.042Z,11.90
2023-04-15T06:45:40.399Z,12.68
2023-04-15T06:48:07.674Z,12.90
2023-04-15T06:50:35.726Z,11.88
2023-04-15T06:53:03.121Z,12.07
2023-04-15T06:55:31.616Z,11.88
2023-04-15T06:57:58.905Z,11.73
2023-04-15T07:00:26.251Z,12.50
2023-04-15T07:02:53.563Z,11.40
2023-04-15T07:05:21.270Z,11.23
2023-04-15T07:07:48.495Z,11.77
2023-04-15T07:10:15.945Z,11.30
2023-04-15T07:12:43.191Z,11.75
2023-04-15T07:15:10.752Z,12.18
2023-04-15T07:17:38.514Z,12.52
2023-04-15T07:20:06.054Z,10.60
2023-04-15T07:22:34.106Z,11.90
2023-04-15T07:25:01.418Z,12.13
2023-04-15T07:27:28.659Z,11.38
2023-04-15T07:29:56.452Z,11.40
2023-04-15T07:32:23.710Z,10.35
2023-04-15T07:34:51.013Z,10.82
2023-04-15T07:37:18.959Z,9.60
2023-04-15T07:39:46.309Z,9.77
2023-04-15T07:42:13.555Z,9.80
2023-04-15T07:44:41.136Z,9.98
2023-04-15T07:47:08.359Z,8.80
2023-04-15T07:49:35.597Z,8.10
2023-04-15T07:52:02.857Z,8.48
2023-04-15T07:54:30.149Z,9.70
2023-04-15T07:56:57.375Z,7.43
2023-04-15T07:59:24.606Z,7.35
2023-04-15T08:01:51.861Z,6.82
2023-04-15T08:04:19.140Z,6.95
2023-04-15T08:06:48.280Z,6.82
2023-04-15T08:09:15.766Z,6.65
2023-04-15T08:11:42.997Z,6.50
2023-04-15T08:14:10.520Z,6.13
2023-04-15T08:16:37.820Z,6.60
2023-04-15T08:19:05.546Z,5.80
2023-04-15T08:21:32.968Z,6.43
2023-04-15T08:24:00.442Z,6.78
2023-04-15T08:26:27.757Z,6.72
2023-04-15T08:28:54.978Z,6.72
2023-04-15T08:31:22.320Z,6.63
2023-04-15T08:33:52.081Z,6.13
2023-04-15T08:36:19.343Z,5.60
2023-04-15T08:38:46.792Z,6.88
2023-04-15T08:41:24.194Z,6.63
2023-04-15T08:43:57.629Z,7.45
2023-04-15T08:46:24.947Z,7.47
2023-04-15T08:48:53.088Z,7.78
2023-04-15T08:51:20.549Z,7.25
2023-04-15T08:53:47.929Z,8.07
2023-04-15T08:56:16.854Z,7.15
2023-04-15T08:58:47.719Z,7.75
2023-04-15T09:01:15.118Z,6.78
2023-04-15T09:03:42.929Z,6.63
2023-04-15T09:06:10.855Z,5.82
2023-04-15T09:08:38.043Z,5.22
2023-04-15T09:11:05.533Z,5.70
2023-04-15T09:13:32.874Z,5.15
2023-04-15T09:16:03.638Z,4.82
2023-04-15T09:18:31.903Z,5.80
2023-04-15T09:21:11.186Z,5.40
2023-04-15T09:23:39.100Z,5.38
2023-04-15T09:26:07.108Z,4.85
2023-04-15T09:28:36.213Z,5.78
2023-04-15T09:31:03.582Z,5.20
2023-04-15T09:33:31.049Z,5.13
2023-04-15T09:36:05.594Z,4.65
2023-04-15T09:38:33.357Z,5.55
2023-04-15T09:41:00.962Z,4.57
2023-04-15T09:43:39.429Z,4.18
2023-04-15T09:46:06.775Z,4.03
2023-04-15T09:48:34.071Z,4.45
2023-04-15T09:51:02.311Z,3.83
2023-04-15T09:53:31.726Z,4.43
2023-04-15T09:56:02.324Z,4.00
2023-04-15T09:58:33.595Z,4.03
2023-04-15T10:01:01.891Z,4.00
2023-04-15T10:03:30.285Z,3.60
2023-04-15T10:05:59.366Z,3.60
2023-04-15T10:08:28.452Z,3.35
2023-04-15T10:13:28.638Z,3.00
2023-04-15T10:15:59.929Z,2.58
2023-04-15T10:18:28.162Z,2.90
2023-04-15T10:20:56.018Z,3.92
2023-04-15T10:23:24.597Z,4.22
2023-04-15T10:25:54.447Z,4.22
2023-04-15T10:28:25.224Z,5.03
2023-04-15T10:30:53.468Z,4.40
2023-04-15T10:33:22.583Z,4.20
2023-04-15T10:38:33.138Z,3.80
2023-04-15T10:41:21.550Z,4.05
2023-04-15T10:43:53.013Z,4.30
2023-04-15T10:46:40.777Z,4.45
2023-04-15T10:49:18.335Z,4.70
2023-04-15T10:51:46.936Z,4.13
2023-04-15T10:54:15.486Z,5.00
2023-04-15T10:56:43.930Z,4.72
2023-04-15T10:59:11.288Z,4.82
2023-04-15T11:01:52.014Z,4.30
2023-04-15T11:04:40.943Z,3.60
2023-04-15T11:07:09.340Z,3.85
2023-04-15T11:09:37.570Z,3.40
2023-04-15T11:12:09.806Z,4.05
2023-04-15T11:14:41.963Z,3.45
2023-04-15T11:17:09.179Z,4.32
2023-04-15T11:19:37.481Z,4.07
2023-04-15T11:22:08.955Z,3.25
2023-04-15T11:24:36.732Z,2.63
2023-04-15T11:27:04.022Z,4.40
2023-04-15T11:29:32.321Z,3.80
2023-04-15T11:32:08.931Z,3.03
2023-04-15T11:34:36.393Z,3.30
2023-04-15T11:37:07.899Z,2.72
2023-04-15T11:39:35.206Z,3.10
2023-04-15T11:42:02.574Z,3.22
2023-04-15T11:44:31.173Z,3.80
2023-04-15T11:46:58.508Z,3.08
2023-04-15T11:49:33.922Z,3.30
2023-04-15T11:52:01.334Z,3.03
2023-04-15T11:54:28.644Z,3.15
2023-04-15T11:56:56.647Z,2.90
2023-04-15T11:59:26.319Z,3.45
2023-04-15T12:01:56.126Z,3.00
2023-04-15T12:04:25.398Z,3.60
2023-04-15T12:06:53.237Z,3.20
2023-04-15T12:09:20.734Z,3.20
2023-04-15T12:11:58.533Z,3.47
2023-04-15T12:14:26.849Z,3.33
2023-04-15T12:16:55.127Z,3.40
2023-04-15T12:19:32.723Z,3.00
2023-04-15T12:22:01.233Z,3.05
2023-04-15T12:24:28.983Z,3.58
2023-04-15T12:26:58.012Z,2.85
2023-04-15T12:31:53.376Z,2.35
2023-04-15T12:34:30.915Z,2.50
2023-04-15T12:36:58.998Z,2.40
2023-04-15T12:39:30.506Z,2.23
2023-04-15T12:41:58.754Z,2.30
2023-04-15T12:44:26.084Z,3.55
2023-04-15T12:46:53.629Z,1.92
2023-04-15T12:49:24.395Z,1.80
2023-04-15T12:51:53.076Z,1.77
2023-04-15T12:54:20.859Z,1.50
2023-04-15T12:56:48.607Z,1.90
2023-04-15T12:59:17.687Z,1.58
2023-04-15T13:01:45.454Z,1.52
2023-04-15T13:04:12.811Z,1.40
2023-04-15T13:06:40.160Z,1.65
2023-04-15T13:09:07.459Z,2.13
2023-04-15T13:11:34.991Z,2.25
2023-04-15T13:14:03.142Z,2.35
2023-04-15T13:16:31.961Z,3.00
2023-04-15T13:19:02.853Z,2.80
2023-04-15T13:21:31.290Z,2.25
2023-04-15T13:23:58.575Z,1.77
2023-04-15T13:26:25.821Z,2.83
2023-04-15T13:28:53.169Z,2.42
2023-04-15T13:31:20.534Z,2.30
2023-04-15T13:33:47.827Z,2.30
2023-04-15T13:36:15.437Z,3.20
2023-04-15T13:38:42.778Z,2.00
2023-04-15T13:41:10.137Z,1.80
2023-04-15T13:43:37.688Z,1.80
2023-04-15T13:46:05.061Z,1.27
2023-04-15T13:48:32.269Z,1.77
2023-04-15T13:50:59.494Z,1.70
2023-04-15T13:53:38.319Z,1.40
2023-04-15T13:56:10.310Z,2.65
2023-04-15T13:58:41.532Z,1.52
2023-04-15T14:01:08.935Z,1.75
2023-04-15T14:03:36.986Z,2.20
2023-04-15T14:06:05.039Z,1.88
2023-04-15T14:08:32.312Z,1.70
2023-04-15T14:10:59.600Z,1.40
2023-04-15T14:13:26.927Z,1.73
2023-04-15T14:15:54.222Z,1.83
2023-04-15T14:18:21.467Z,1.80
2023-04-15T14:20:48.694Z,1.42
2023-04-15T14:23:16.160Z,1.90
2023-04-15T14:25:44.184Z,1.50
2023-04-15T14:28:12.730Z,1.40
2023-04-15T14:30:40.067Z,1.40
2023-04-15T14:33:07.326Z,2.72
2023-04-15T14:35:34.591Z,2.33
2023-04-15T14:38:01.873Z,2.67
2023-04-15T14:40:29.242Z,2.05
2023-04-15T14:42:56.450Z,1.73
2023-04-15T14:45:23.842Z,1.90
2023-04-15T14:47:51.189Z,2.00
2023-04-15T14:50:18.569Z,1.60
2023-04-15T14:52:45.853Z,1.73
2023-04-15T14:55:13.885Z,2.40
2023-04-15T14:57:41.877Z,1.70
2023-04-15T15:00:10.464Z,1.80
2023-04-15T15:02:40.429Z,1.52
2023-04-15T15:05:08.705Z,1.90
2023-04-15T15:07:37.276Z,2.05
2023-04-15T15:10:06.040Z,1.88
2023-04-15T15:12:33.666Z,2.00
2023-04-15T15:15:02.994Z,2.10
2023-04-15T15:17:32.630Z,2.00
2023-04-15T15:19:59.969Z,1.83
2023-04-15T15:22:27.268Z,2.03
2023-04-15T15:24:54.711Z,2.17
2023-04-15T15:27:21.947Z,3.03
2023-04-15T15:29:49.216Z,2.17
2023-04-15T15:32:16.466Z,2.47
2023-04-15T15:34:43.790Z,1.95
2023-04-15T15:37:11.004Z,2.50
2023-04-15T15:39:38.325Z,1.77
2023-04-15T15:42:07.347Z,1.90
2023-04-15T15:44:36.264Z,1.55
2023-04-15T15:47:03.807Z,2.08
2023-04-15T15:49:31.256Z,2.88
2023-04-15T15:51:58.486Z,2.20
2023-04-15T15:54:26.041Z,1.85
2023-04-15T15:56:53.260Z,1.88
2023-04-15T15:59:20.743Z,1.50
2023-04-15T16:01:49.285Z,1.40
2023-04-15T16:04:16.706Z,2.22
2023-04-15T16:06:44.962Z,1.80
2023-04-15T16:09:12.302Z,2.00
2023-04-15T16:11:39.736Z,2.13
2023-04-15T16:14:07.022Z,2.15
2023-04-15T16:16:34.371Z,2.25
2023-04-15T16:19:01.695Z,1.63
2023-04-15T16:21:29.181Z,2.03
2023-04-15T16:23:56.794Z,1.77
2023-04-15T16:26:24.339Z,1.27
2023-04-15T16:28:51.610Z,1.80
2023-04-15T16:31:18.915Z,1.58
2023-04-15T16:33:46.189Z,1.50
2023-04-15T16:36:13.689Z,2.35
2023-04-15T16:38:41.089Z,1.33
2023-04-15T16:41:08.322Z,1.33
2023-04-15T16:43:35.690Z,2.33
2023-04-15T16:46:02.937Z,2.35
2023-04-15T16:48:30.235Z,1.52
2023-04-15T16:50:58.110Z,1.70
2023-04-15T16:53:25.857Z,2.90
2023-04-15T16:55:53.252Z,2.28
2023-04-15T16:58:20.690Z,2.13
2023-04-15T17:00:47.935Z,1.98
2023-04-15T17:03:15.637Z,2.17
2023-04-15T17:05:42.969Z,1.90
2023-04-15T17:08:10.274Z,1.77
2023-04-15T17:10:37.566Z,1.55
2023-04-15T17:13:04.934Z,2.38
2023-04-15T17:15:34.576Z,1.40
2023-04-15T17:18:02.126Z,1.92
2023-04-15T17:20:30.685Z,3.33
2023-04-15T17:22:57.909Z,1.30
2023-04-15T17:25:25.245Z,1.67
2023-04-15T17:27:52.485Z,1.65
2023-04-15T17:30:19.905Z,3.13
2023-04-15T17:32:47.209Z,1.30
2023-04-15T17:35:14.530Z,1.33
2023-04-15T17:37:41.765Z,1.92
2023-04-15T17:40:09.477Z,1.67
2023-04-15T17:42:36.688Z,1.30
2023-04-15T17:45:04.022Z,4.53
2023-04-15T17:47:31.363Z,2.22
2023-04-15T17:49:58.692Z,1.77
2023-04-15T17:52:26.090Z,1.92
2023-04-15T17:54:53.593Z,2.75
2023-04-15T17:57:20.882Z,2.72
2023-04-15T17:59:51.703Z,2.38
2023-04-15T18:02:19.171Z,1.63
2023-04-15T18:04:46.578Z,1.77
2023-04-15T18:07:13.892Z,1.48
2023-04-15T18:09:41.516Z,1.25
2023-04-15T18:12:09.201Z,1.35
2023-04-15T18:14:36.748Z,1.65
2023-04-15T18:17:04.051Z,1.63
2023-04-15T18:19:31.811Z,1.35
2023-04-15T18:22:00.277Z,1.40
2023-04-15T18:24:27.998Z,1.13
2023-04-15T18:26:56.400Z,1.23
2023-04-15T18:29:23.877Z,2.10
2023-04-15T18:31:52.091Z,2.22
2023-04-15T18:34:19.385Z,1.95
2023-04-15T18:36:46.889Z,2.42
2023-04-15T18:39:14.291Z,1.58
2023-04-15T18:41:41.573Z,2.15
2023-04-15T18:44:08.920Z,1.83
2023-04-15T18:46:36.144Z,2.35
2023-04-15T18:49:04.196Z,1.75
2023-04-15T18:51:32.547Z,1.85
2023-04-15T18:53:59.824Z,2.42
2023-04-15T18:56:27.055Z,2.08
2023-04-15T18:59:09.715Z,1.80
2023-04-15T19:01:41.595Z,2.63
2023-04-15T19:04:10.013Z,2.47
2023-04-15T19:06:37.327Z,1.70
2023-04-15T19:09:04.885Z,1.50
2023-04-15T19:11:32.532Z,1.40
2023-04-15T19:13:59.780Z,2.67
2023-04-15T19:16:27.115Z,1.67
2023-04-15T19:18:54.491Z,1.40
2023-04-15T19:21:21.736Z,2.08
2023-04-15T19:23:50.000Z,2.15
2023-04-15T19:26:17.302Z,1.67
2023-04-15T19:28:44.545Z,2.15
2023-04-15T19:31:11.964Z,3.10
2023-04-15T19:33:39.315Z,1.67
2023-04-15T19:36:07.344Z,2.45
2023-04-15T19:38:38.069Z,2.22
2023-04-15T19:41:05.400Z,2.13
2023-04-15T19:43:33.342Z,2.30
2023-04-15T19:46:00.722Z,2.85
2023-04-15T19:48:28.081Z,1.73
2023-04-15T19:50:55.552Z,1.60
2023-04-15T19:53:22.827Z,1.88
2023-04-15T19:55:50.073Z,1.27
2023-04-15T19:58:17.268Z,1.92
2023-04-15T20:00:44.573Z,1.65
2023-04-15T20:03:12.123Z,1.80
2023-04-15T20:05:39.572Z,1.95
2023-04-15T20:08:06.811Z,1.25
2023-04-15T20:10:35.293Z,1.20
2023-04-15T20:13:02.585Z,1.30
2023-04-15T20:15:29.844Z,1.38
2023-04-15T20:17:57.196Z,1.83
2023-04-15T20:20:24.518Z,1.70
2023-04-15T20:22:53.025Z,2.45
2023-04-15T20:25:20.433Z,1.25
2023-04-15T20:27:47.678Z,1.35
2023-04-15T20:30:14.898Z,1.48
2023-04-15T20:32:42.615Z,1.55
2023-04-15T20:35:10.166Z,1.88
2023-04-15T20:37:38.021Z,1.60
2023-04-15T20:40:05.497Z,1.05
2023-04-15T20:42:34.442Z,1.40
2023-04-15T20:45:02.376Z,1.42
2023-04-15T20:47:29.858Z,2.15
2023-04-15T20:49:57.403Z,1.70
2023-04-15T20:52:24.756Z,1.45
2023-04-15T20:54:52.104Z,1.30
2023-04-15T20:57:20.400Z,1.60
2023-04-15T20:59:47.782Z,1.60
2023-04-15T21:02:15.093Z,1.98
2023-04-15T21:04:43.341Z,1.48
2023-04-15T21:07:10.948Z,1.33
2023-04-15T21:09:41.314Z,1.67
2023-04-15T21:12:08.758Z,1.65
2023-04-15T21:14:37.009Z,2.50
2023-04-15T21:17:09.190Z,2.58
2023-04-15T21:19:38.344Z,1.58
2023-04-15T21:22:05.569Z,1.95
2023-04-15T21:24:32.897Z,1.95
2023-04-15T21:27:00.104Z,3.28
2023-04-15T21:29:27.425Z,1.60
2023-04-15T21:31:54.761Z,1.75
2023-04-15T21:34:22.040Z,2.08
2023-04-15T21:36:49.501Z,1.52
2023-04-15T21:39:17.378Z,3.65
2023-04-15T21:41:45.004Z,2.20
2023-04-15T21:44:13.992Z,2.03
2023-04-15T21:46:42.260Z,2.00
2023-04-15T21:49:13.468Z,2.05
2023-04-15T21:51:40.923Z,1.85
2023-04-15T21:54:08.281Z,2.00
2023-04-15T21:56:38.637Z,2.30
2023-04-15T21:59:06.863Z,2.55
2023-04-15T22:01:34.398Z,1.63
2023-04-15T22:04:02.025Z,2.25
2023-04-15T22:06:29.378Z,2.58
2023-04-15T22:08:57.938Z,2.10
2023-04-15T22:11:30.577Z,2.30
2023-04-15T22:13:58.020Z,2.13
2023-04-15T22:16:26.343Z,2.15
2023-04-15T22:18:53.989Z,2.65
2023-04-15T22:21:21.388Z,3.63
2023-04-15T22:23:49.279Z,2.50
2023-04-15T22:26:16.680Z,2.70
2023-04-15T22:28:43.929Z,2.60
2023-04-15T22:31:11.438Z,4.00
2023-04-15T22:33:38.954Z,2.80
2023-04-15T22:36:06.444Z,2.60
2023-04-15T22:38:33.806Z,2.80
2023-04-15T22:41:01.261Z,3.90
2023-04-15T22:43:28.573Z,3.28
2023-04-15T22:45:56.631Z,2.80
2023-04-15T22:48:24.059Z,3.28
2023-04-15T22:50:51.370Z,3.08
2023-04-15T22:53:18.989Z,3.33
2023-04-15T22:55:47.397Z,3.72
2023-04-15T22:58:15.272Z,3.10
2023-04-15T23:00:42.594Z,3.15
2023-04-15T23:03:10.167Z,2.83
2023-04-15T23:05:40.036Z,2.78
2023-04-15T23:08:07.532Z,2.92
2023-04-15T23:10:34.776Z,3.05
2023-04-15T23:13:03.137Z,2.40
2023-04-15T23:15:30.347Z,3.40
2023-04-15T23:17:57.681Z,4.93
2023-04-15T23:20:24.932Z,3.33
2023-04-15T23:22:52.174Z,3.17
2023-04-15T23:25:22.247Z,3.17
2023-04-15T23:27:49.468Z,4.25
2023-04-15T23:30:16.761Z,4.03
2023-04-15T23:32:44.073Z,3.55
2023-04-15T23:35:11.577Z,2.90
2023-04-15T23:37:38.882Z,3.00
2023-04-15T23:40:06.508Z,4.60
2023-04-15T23:42:33.744Z,2.75
2023-04-15T23:45:00.966Z,3.22
2023-04-15T23:47:28.253Z,3.55
2023-04-15T23:49:55.479Z,4.38
2023-04-15T23:52:22.803Z,2.47
2023-04-15T23:54:50.037Z,3.05
2023-04-15T23:57:18.722Z,2.58
2023-04-15T23:59:46.497Z,2.95
